Vandalia, Ohio
Current Conditions -  °F | °C
As of 1:56 PM on Thursday 30 Oct 2014 (Local Time) from KDAY Reporting Station
Overcast Overcast  
Wind Chill: 50°   Ceiling: 3600
Heat Index: 50°   Visibility: 10mi
Dew Point: 34°   Wind: 0mph
Humidity: 54%   Direction: NA
Pressure: 30.13"   Gusts: NA
Location:  39.89°N, 84.19°W
Report Text: KDAY 301756Z 00000KT 10SM OVC036 10/01 A3013 RMK AO2 SLP205 BINOVC T01000011 10100 20061 58014
Loading
Personal Weather Stations






























Interactive Weather Map
Tropical Storm Tracking
New forecast layout! Learn more

10-Day Weather Forecast

Advertisements
Track Severe Weather on mobile